sensor_id;sensor_type;location;lat;lon;timestamp;pressure;altitude;pressure_sealevel;temperature;humidity
51261;BME280;61705;46.228;24.812;2023-09-19T00:00:38;97771.97;;;12.48;97.22
51261;BME280;61705;46.228;24.812;2023-09-19T00:03:05;97769.31;;;12.48;97.58
51261;BME280;61705;46.228;24.812;2023-09-19T00:05:35;97777.94;;;12.34;97.57
51261;BME280;61705;46.228;24.812;2023-09-19T00:08:05;97772.84;;;12.31;97.72
51261;BME280;61705;46.228;24.812;2023-09-19T00:10:32;97771.09;;;12.30;97.48
51261;BME280;61705;46.228;24.812;2023-09-19T00:13:04;97767.03;;;12.23;97.50
51261;BME280;61705;46.228;24.812;2023-09-19T00:15:38;97760.34;;;12.16;97.84
51261;BME280;61705;46.228;24.812;2023-09-19T00:18:05;97761.34;;;12.13;97.96
51261;BME280;61705;46.228;24.812;2023-09-19T00:20:36;97752.69;;;12.09;98.23
51261;BME280;61705;46.228;24.812;2023-09-19T00:23:03;97747.94;;;11.99;98.65
51261;BME280;61705;46.228;24.812;2023-09-19T00:25:30;97753.56;;;12.10;98.58
51261;BME280;61705;46.228;24.812;2023-09-19T00:27:58;97761.69;;;12.07;98.31
51261;BME280;61705;46.228;24.812;2023-09-19T00:30:25;97762.44;;;12.09;97.85
51261;BME280;61705;46.228;24.812;2023-09-19T00:32:52;97756.59;;;12.02;98.23
51261;BME280;61705;46.228;24.812;2023-09-19T00:35:19;97762.13;;;11.98;98.38
51261;BME280;61705;46.228;24.812;2023-09-19T00:37:46;97758.63;;;11.97;98.00
51261;BME280;61705;46.228;24.812;2023-09-19T00:40:12;97748.63;;;11.85;98.30
51261;BME280;61705;46.228;24.812;2023-09-19T00:42:42;97745.94;;;11.87;98.47
51261;BME280;61705;46.228;24.812;2023-09-19T00:45:09;97753.94;;;11.85;98.44
51261;BME280;61705;46.228;24.812;2023-09-19T00:47:38;97749.56;;;11.84;98.13
51261;BME280;61705;46.228;24.812;2023-09-19T00:50:05;97748.44;;;11.71;97.62
51261;BME280;61705;46.228;24.812;2023-09-19T00:52:34;97747.06;;;11.62;97.95
51261;BME280;61705;46.228;24.812;2023-09-19T00:55:03;97743.81;;;11.57;98.26
51261;BME280;61705;46.228;24.812;2023-09-19T00:57:30;97743.88;;;11.55;98.55
51261;BME280;61705;46.228;24.812;2023-09-19T00:59:58;97743.09;;;11.53;98.35
51261;BME280;61705;46.228;24.812;2023-09-19T01:02:26;97736.56;;;11.60;98.26
51261;BME280;61705;46.228;24.812;2023-09-19T01:04:56;97734.75;;;11.44;98.25
51261;BME280;61705;46.228;24.812;2023-09-19T01:07:23;97736.75;;;11.38;98.34
51261;BME280;61705;46.228;24.812;2023-09-19T01:09:50;97739.25;;;11.23;98.84
51261;BME280;61705;46.228;24.812;2023-09-19T01:12:22;97729.41;;;11.26;99.16
51261;BME280;61705;46.228;24.812;2023-09-19T01:14:58;97739.41;;;11.38;99.00
51261;BME280;61705;46.228;24.812;2023-09-19T01:17:32;97737.28;;;11.45;98.43
51261;BME280;61705;46.228;24.812;2023-09-19T01:22:37;97731.53;;;11.37;98.92
51261;BME280;61705;46.228;24.812;2023-09-19T01:30:13;97724.25;;;11.42;98.55
51261;BME280;61705;46.228;24.812;2023-09-19T01:32:40;97723.59;;;11.37;98.13
51261;BME280;61705;46.228;24.812;2023-09-19T01:35:08;97716.03;;;11.29;98.33
51261;BME280;61705;46.228;24.812;2023-09-19T01:37:39;97712.44;;;11.30;98.41
51261;BME280;61705;46.228;24.812;2023-09-19T01:40:06;97707.94;;;11.32;98.45
51261;BME280;61705;46.228;24.812;2023-09-19T01:45:22;97718.38;;;11.17;98.54
51261;BME280;61705;46.228;24.812;2023-09-19T01:47:56;97699.25;;;11.11;98.83
51261;BME280;61705;46.228;24.812;2023-09-19T01:52:54;97686.88;;;11.12;99.38
51261;BME280;61705;46.228;24.812;2023-09-19T01:55:23;97683.53;;;11.08;98.85
51261;BME280;61705;46.228;24.812;2023-09-19T01:58:27;97685.66;;;11.00;99.11
51261;BME280;61705;46.228;24.812;2023-09-19T02:00:45;97687.53;;;10.98;99.19
51261;BME280;61705;46.228;24.812;2023-09-19T02:03:14;97683.38;;;11.11;99.14
51261;BME280;61705;46.228;24.812;2023-09-19T02:05:47;97679.13;;;11.07;98.65
51261;BME280;61705;46.228;24.812;2023-09-19T02:08:16;97680.38;;;11.00;98.78
51261;BME280;61705;46.228;24.812;2023-09-19T02:10:43;97670.09;;;10.94;99.04
51261;BME280;61705;46.228;24.812;2023-09-19T02:13:16;97672.81;;;10.93;99.27
51261;BME280;61705;46.228;24.812;2023-09-19T02:15:43;97673.78;;;10.90;99.37
51261;BME280;61705;46.228;24.812;2023-09-19T02:18:13;97675.31;;;10.96;99.17
51261;BME280;61705;46.228;24.812;2023-09-19T02:20:41;97682.16;;;11.00;99.05
51261;BME280;61705;46.228;24.812;2023-09-19T02:23:08;97681.09;;;10.85;99.06
51261;BME280;61705;46.228;24.812;2023-09-19T02:25:34;97681.75;;;10.71;99.23
51261;BME280;61705;46.228;24.812;2023-09-19T02:28:05;97683.75;;;10.85;99.38
51261;BME280;61705;46.228;24.812;2023-09-19T02:30:32;97676.53;;;10.88;99.13
51261;BME280;61705;46.228;24.812;2023-09-19T02:32:59;97677.25;;;10.92;98.78
51261;BME280;61705;46.228;24.812;2023-09-19T02:35:29;97682.72;;;11.06;98.35
51261;BME280;61705;46.228;24.812;2023-09-19T02:38:02;97675.06;;;11.00;97.85
51261;BME280;61705;46.228;24.812;2023-09-19T02:40:33;97671.00;;;10.93;97.87
51261;BME280;61705;46.228;24.812;2023-09-19T02:43:02;97660.94;;;11.01;97.98
51261;BME280;61705;46.228;24.812;2023-09-19T02:45:29;97661.56;;;11.06;97.85
51261;BME280;61705;46.228;24.812;2023-09-19T02:47:56;97658.31;;;11.01;97.59
51261;BME280;61705;46.228;24.812;2023-09-19T02:50:23;97651.13;;;11.03;97.67
51261;BME280;61705;46.228;24.812;2023-09-19T02:52:50;97646.41;;;11.10;97.76
51261;BME280;61705;46.228;24.812;2023-09-19T02:55:17;97642.63;;;11.15;97.58
51261;BME280;61705;46.228;24.812;2023-09-19T02:57:49;97644.84;;;11.25;97.05
51261;BME280;61705;46.228;24.812;2023-09-19T03:00:16;97638.09;;;11.18;96.85
51261;BME280;61705;46.228;24.812;2023-09-19T03:02:49;97630.53;;;11.10;97.06
51261;BME280;61705;46.228;24.812;2023-09-19T03:05:15;97631.78;;;11.03;97.42
51261;BME280;61705;46.228;24.812;2023-09-19T03:07:45;97625.22;;;10.93;97.98
51261;BME280;61705;46.228;24.812;2023-09-19T03:10:18;97629.78;;;10.89;97.99
51261;BME280;61705;46.228;24.812;2023-09-19T03:12:45;97627.81;;;10.94;98.26
51261;BME280;61705;46.228;24.812;2023-09-19T03:15:12;97614.88;;;10.88;98.05
51261;BME280;61705;46.228;24.812;2023-09-19T03:17:44;97615.72;;;10.88;97.97
51261;BME280;61705;46.228;24.812;2023-09-19T03:20:12;97607.84;;;10.87;97.79
51261;BME280;61705;46.228;24.812;2023-09-19T03:22:44;97609.22;;;10.96;97.41
51261;BME280;61705;46.228;24.812;2023-09-19T03:25:10;97602.22;;;10.95;97.21
51261;BME280;61705;46.228;24.812;2023-09-19T03:27:38;97600.47;;;10.94;97.40
51261;BME280;61705;46.228;24.812;2023-09-19T03:30:05;97607.84;;;11.06;96.91
51261;BME280;61705;46.228;24.812;2023-09-19T03:32:35;97596.69;;;10.99;97.14
51261;BME280;61705;46.228;24.812;2023-09-19T03:35:03;97585.50;;;10.94;97.20
51261;BME280;61705;46.228;24.812;2023-09-19T03:37:31;97582.91;;;10.93;97.29
51261;BME280;61705;46.228;24.812;2023-09-19T03:39:59;97591.25;;;11.02;97.40
51261;BME280;61705;46.228;24.812;2023-09-19T03:42:31;97592.06;;;11.04;96.97
51261;BME280;61705;46.228;24.812;2023-09-19T03:44:58;97600.13;;;11.01;97.08
51261;BME280;61705;46.228;24.812;2023-09-19T03:47:26;57215.63;;;-144.75;100.00
51261;BME280;61705;46.228;24.812;2023-09-19T03:49:52;57215.63;;;-144.75;100.00
51261;BME280;61705;46.228;24.812;2023-09-19T03:52:19;57215.63;;;-144.75;100.00
51261;BME280;61705;46.228;24.812;2023-09-19T03:54:45;57215.63;;;-144.75;100.00
51261;BME280;61705;46.228;24.812;2023-09-19T03:57:12;57215.63;;;-144.75;100.00
51261;BME280;61705;46.228;24.812;2023-09-19T03:59:42;57215.63;;;-144.75;100.00
51261;BME280;61705;46.228;24.812;2023-09-19T04:02:09;97585.41;;;11.32;96.87
51261;BME280;61705;46.228;24.812;2023-09-19T04:04:48;97581.97;;;11.30;96.30
51261;BME280;61705;46.228;24.812;2023-09-19T04:07:15;97579.56;;;11.25;96.46
51261;BME280;61705;46.228;24.812;2023-09-19T04:09:42;97587.84;;;11.18;96.81
51261;BME280;61705;46.228;24.812;2023-09-19T04:12:09;97589.19;;;11.26;96.79
51261;BME280;61705;46.228;24.812;2023-09-19T04:14:35;97582.56;;;11.18;96.73
51261;BME280;61705;46.228;24.812;2023-09-19T04:17:02;97590.88;;;11.10;97.06
51261;BME280;61705;46.228;24.812;2023-09-19T04:19:29;97581.38;;;11.06;97.31
51261;BME280;61705;46.228;24.812;2023-09-19T04:21:56;97583.03;;;11.08;97.42
51261;BME280;61705;46.228;24.812;2023-09-19T04:24:23;97576.56;;;11.14;97.70
51261;BME280;61705;46.228;24.812;2023-09-19T04:26:49;97572.84;;;11.18;97.77
51261;BME280;61705;46.228;24.812;2023-09-19T04:29:16;97576.66;;;11.30;97.69
51261;BME280;61705;46.228;24.812;2023-09-19T04:31:45;97580.97;;;11.32;97.42
51261;BME280;61705;46.228;24.812;2023-09-19T04:34:12;97572.53;;;11.24;97.20
51261;BME280;61705;46.228;24.812;2023-09-19T04:36:42;97578.38;;;11.31;97.16
51261;BME280;61705;46.228;24.812;2023-09-19T04:39:09;97579.22;;;11.31;97.24
51261;BME280;61705;46.228;24.812;2023-09-19T04:41:38;97576.97;;;11.41;96.84
51261;BME280;61705;46.228;24.812;2023-09-19T04:44:07;97576.81;;;11.44;96.63
51261;BME280;61705;46.228;24.812;2023-09-19T04:46:34;97570.22;;;11.70;96.77
51261;BME280;61705;46.228;24.812;2023-09-19T04:49:01;97561.41;;;11.70;95.73
51261;BME280;61705;46.228;24.812;2023-09-19T04:51:28;97555.44;;;11.66;95.88
51261;BME280;61705;46.228;24.812;2023-09-19T04:54:00;97551.19;;;11.79;95.33
51261;BME280;61705;46.228;24.812;2023-09-19T04:56:27;97545.69;;;11.84;95.39
51261;BME280;61705;46.228;24.812;2023-09-19T04:58:55;97553.63;;;11.84;95.48
51261;BME280;61705;46.228;24.812;2023-09-19T05:01:21;97547.00;;;11.75;96.00
51261;BME280;61705;46.228;24.812;2023-09-19T05:03:49;97542.38;;;11.79;96.05
51261;BME280;61705;46.228;24.812;2023-09-19T05:06:19;97539.69;;;11.80;96.04
51261;BME280;61705;46.228;24.812;2023-09-19T05:08:47;97532.56;;;11.98;96.12
51261;BME280;61705;46.228;24.812;2023-09-19T05:11:24;97533.47;;;12.15;95.65
51261;BME280;61705;46.228;24.812;2023-09-19T05:13:53;97539.94;;;12.09;95.08
51261;BME280;61705;46.228;24.812;2023-09-19T05:16:20;97538.81;;;11.97;95.26
51261;BME280;61705;46.228;24.812;2023-09-19T05:18:47;97545.38;;;11.90;95.56
51261;BME280;61705;46.228;24.812;2023-09-19T05:21:16;97546.63;;;12.16;95.11
51261;BME280;61705;46.228;24.812;2023-09-19T05:23:44;97560.00;;;12.46;94.81
51261;BME280;61705;46.228;24.812;2023-09-19T05:26:11;97559.56;;;12.54;93.29
51261;BME280;61705;46.228;24.812;2023-09-19T05:28:38;97553.50;;;12.52;92.93
51261;BME280;61705;46.228;24.812;2023-09-19T05:31:05;97542.66;;;12.56;92.18
51261;BME280;61705;46.228;24.812;2023-09-19T05:33:32;97545.03;;;12.61;91.69
51261;BME280;61705;46.228;24.812;2023-09-19T05:35:59;97543.84;;;12.83;91.87
51261;BME280;61705;46.228;24.812;2023-09-19T05:38:26;97531.91;;;13.05;91.07
51261;BME280;61705;46.228;24.812;2023-09-19T05:40:56;97537.69;;;13.12;90.70
51261;BME280;61705;46.228;24.812;2023-09-19T05:43:23;97544.56;;;13.16;90.66
51261;BME280;61705;46.228;24.812;2023-09-19T05:45:49;97531.94;;;13.36;90.22
51261;BME280;61705;46.228;24.812;2023-09-19T05:48:18;97531.41;;;13.45;89.94
51261;BME280;61705;46.228;24.812;2023-09-19T05:50:47;97530.28;;;13.49;89.49
51261;BME280;61705;46.228;24.812;2023-09-19T05:53:15;97539.22;;;13.62;89.87
51261;BME280;61705;46.228;24.812;2023-09-19T05:55:42;97540.72;;;13.66;89.20
51261;BME280;61705;46.228;24.812;2023-09-19T05:58:09;97529.56;;;13.61;89.22
51261;BME280;61705;46.228;24.812;2023-09-19T06:00:37;97532.94;;;13.63;89.34
51261;BME280;61705;46.228;24.812;2023-09-19T06:03:05;97533.25;;;13.87;89.77
51261;BME280;61705;46.228;24.812;2023-09-19T06:05:32;97524.44;;;13.87;88.13
51261;BME280;61705;46.228;24.812;2023-09-19T06:07:59;97520.75;;;13.75;88.87
51261;BME280;61705;46.228;24.812;2023-09-19T06:10:27;97518.09;;;13.75;89.24
51261;BME280;61705;46.228;24.812;2023-09-19T06:12:58;97509.47;;;14.00;89.07
51261;BME280;61705;46.228;24.812;2023-09-19T06:15:25;97518.56;;;13.96;88.64
51261;BME280;61705;46.228;24.812;2023-09-19T06:17:52;97523.31;;;13.91;89.55
51261;BME280;61705;46.228;24.812;2023-09-19T06:20:23;97525.41;;;13.86;90.20
51261;BME280;61705;46.228;24.812;2023-09-19T06:22:50;97519.31;;;13.98;89.63
51261;BME280;61705;46.228;24.812;2023-09-19T06:25:18;97521.22;;;13.96;90.03
51261;BME280;61705;46.228;24.812;2023-09-19T06:27:49;97518.88;;;13.91;89.94
51261;BME280;61705;46.228;24.812;2023-09-19T06:30:22;97514.66;;;13.87;89.78
51261;BME280;61705;46.228;24.812;2023-09-19T06:32:59;97513.63;;;14.04;89.78
51261;BME280;61705;46.228;24.812;2023-09-19T06:35:31;97499.66;;;14.15;89.42
51261;BME280;61705;46.228;24.812;2023-09-19T06:38:01;97505.09;;;14.13;89.75
51261;BME280;61705;46.228;24.812;2023-09-19T06:40:29;97502.41;;;14.28;89.84
51261;BME280;61705;46.228;24.812;2023-09-19T06:42:58;97493.41;;;14.30;89.52
51261;BME280;61705;46.228;24.812;2023-09-19T06:45:24;97493.22;;;14.33;89.95
51261;BME280;61705;46.228;24.812;2023-09-19T06:47:54;97498.91;;;14.27;89.98
51261;BME280;61705;46.228;24.812;2023-09-19T06:50:25;97509.06;;;14.35;89.38
51261;BME280;61705;46.228;24.812;2023-09-19T06:52:52;97510.97;;;14.33;88.81
51261;BME280;61705;46.228;24.812;2023-09-19T06:55:21;97516.19;;;14.34;88.28
51261;BME280;61705;46.228;24.812;2023-09-19T06:57:48;97512.66;;;14.48;88.16
51261;BME280;61705;46.228;24.812;2023-09-19T07:00:15;97515.09;;;14.65;87.22
51261;BME280;61705;46.228;24.812;2023-09-19T07:02:45;97512.56;;;14.64;87.20
51261;BME280;61705;46.228;24.812;2023-09-19T07:05:11;97512.69;;;14.75;87.08
51261;BME280;61705;46.228;24.812;2023-09-19T07:07:38;97525.38;;;14.99;86.58
51261;BME280;61705;46.228;24.812;2023-09-19T07:10:08;97526.59;;;15.20;86.50
51261;BME280;61705;46.228;24.812;2023-09-19T07:12:37;97519.81;;;15.41;85.92
51261;BME280;61705;46.228;24.812;2023-09-19T07:15:04;97513.44;;;15.44;84.94
51261;BME280;61705;46.228;24.812;2023-09-19T07:17:32;97515.81;;;15.61;84.69
51261;BME280;61705;46.228;24.812;2023-09-19T07:19:59;97508.00;;;15.73;84.34
51261;BME280;61705;46.228;24.812;2023-09-19T07:22:26;97515.97;;;15.85;84.48
51261;BME280;61705;46.228;24.812;2023-09-19T07:24:53;97508.81;;;15.99;82.77
51261;BME280;61705;46.228;24.812;2023-09-19T07:27:20;97517.56;;;15.88;82.55
51261;BME280;61705;46.228;24.812;2023-09-19T07:29:47;97516.28;;;16.19;82.16
51261;BME280;61705;46.228;24.812;2023-09-19T07:32:17;97512.59;;;16.46;81.04
51261;BME280;61705;46.228;24.812;2023-09-19T07:34:44;97513.53;;;16.57;79.98
51261;BME280;61705;46.228;24.812;2023-09-19T07:37:13;97517.28;;;16.55;80.00
51261;BME280;61705;46.228;24.812;2023-09-19T07:39:42;97515.47;;;16.43;80.72
51261;BME280;61705;46.228;24.812;2023-09-19T07:42:09;97515.28;;;16.46;80.48
51261;BME280;61705;46.228;24.812;2023-09-19T07:44:37;97507.13;;;16.47;80.21
51261;BME280;61705;46.228;24.812;2023-09-19T07:47:04;97509.81;;;16.47;80.28
51261;BME280;61705;46.228;24.812;2023-09-19T07:49:31;97505.09;;;16.51;80.69
51261;BME280;61705;46.228;24.812;2023-09-19T07:51:57;97509.38;;;16.53;80.68
51261;BME280;61705;46.228;24.812;2023-09-19T07:54:25;97511.31;;;16.51;80.84
51261;BME280;61705;46.228;24.812;2023-09-19T07:57:00;97507.53;;;16.67;80.58
51261;BME280;61705;46.228;24.812;2023-09-19T07:59:26;97509.34;;;16.79;79.77
51261;BME280;61705;46.228;24.812;2023-09-19T08:01:53;97502.28;;;17.02;79.33
51261;BME280;61705;46.228;24.812;2023-09-19T08:04:22;97499.59;;;17.26;78.54
51261;BME280;61705;46.228;24.812;2023-09-19T08:06:52;97489.66;;;17.28;76.85
51261;BME280;61705;46.228;24.812;2023-09-19T08:09:19;97492.81;;;17.33;76.39
51261;BME280;61705;46.228;24.812;2023-09-19T08:11:51;97492.16;;;17.53;75.84
51261;BME280;61705;46.228;24.812;2023-09-19T08:14:17;97491.63;;;17.84;76.14
51261;BME280;61705;46.228;24.812;2023-09-19T08:16:44;97495.44;;;18.04;73.69
51261;BME280;61705;46.228;24.812;2023-09-19T08:19:11;97486.44;;;18.16;72.41
51261;BME280;61705;46.228;24.812;2023-09-19T08:21:39;97491.31;;;18.33;73.02
51261;BME280;61705;46.228;24.812;2023-09-19T08:24:06;97481.56;;;18.43;72.21
51261;BME280;61705;46.228;24.812;2023-09-19T08:26:32;97488.00;;;18.52;70.83
51261;BME280;61705;46.228;24.812;2023-09-19T08:28:59;97482.78;;;18.39;67.89
51261;BME280;61705;46.228;24.812;2023-09-19T08:31:32;97482.88;;;18.49;67.89
51261;BME280;61705;46.228;24.812;2023-09-19T08:34:00;97488.69;;;18.65;67.07
51261;BME280;61705;46.228;24.812;2023-09-19T08:36:27;97490.09;;;19.03;67.71
51261;BME280;61705;46.228;24.812;2023-09-19T08:38:53;97485.03;;;19.21;65.34
51261;BME280;61705;46.228;24.812;2023-09-19T08:41:23;97482.88;;;19.15;66.01
51261;BME280;61705;46.228;24.812;2023-09-19T08:43:50;97496.03;;;19.18;65.83
51261;BME280;61705;46.228;24.812;2023-09-19T08:46:20;97491.28;;;19.10;65.21
51261;BME280;61705;46.228;24.812;2023-09-19T08:48:54;97497.41;;;19.01;65.08
51261;BME280;61705;46.228;24.812;2023-09-19T08:51:28;97500.25;;;18.88;65.45
51261;BME280;61705;46.228;24.812;2023-09-19T08:54:07;97500.78;;;18.60;65.98
51261;BME280;61705;46.228;24.812;2023-09-19T08:56:34;97506.63;;;18.54;67.00
51261;BME280;61705;46.228;24.812;2023-09-19T08:59:03;97506.97;;;18.60;67.72
51261;BME280;61705;46.228;24.812;2023-09-19T09:01:31;97509.91;;;18.57;68.10
51261;BME280;61705;46.228;24.812;2023-09-19T09:04:01;97506.59;;;18.76;68.75
51261;BME280;61705;46.228;24.812;2023-09-19T09:06:28;97507.69;;;18.85;69.02
51261;BME280;61705;46.228;24.812;2023-09-19T09:08:55;97509.72;;;18.92;67.73
51261;BME280;61705;46.228;24.812;2023-09-19T09:11:22;97515.44;;;18.99;67.71
51261;BME280;61705;46.228;24.812;2023-09-19T09:13:54;97526.75;;;19.03;68.09
51261;BME280;61705;46.228;24.812;2023-09-19T09:16:21;97537.75;;;19.21;70.74
51261;BME280;61705;46.228;24.812;2023-09-19T09:18:52;97539.19;;;19.25;71.10
51261;BME280;61705;46.228;24.812;2023-09-19T09:21:21;97542.22;;;19.31;70.39
51261;BME280;61705;46.228;24.812;2023-09-19T09:23:51;97536.16;;;19.29;69.38
51261;BME280;61705;46.228;24.812;2023-09-19T09:29:13;97542.84;;;19.67;67.02
51261;BME280;61705;46.228;24.812;2023-09-19T09:31:46;97538.84;;;19.82;66.13
51261;BME280;61705;46.228;24.812;2023-09-19T09:34:14;97542.59;;;19.70;64.79
51261;BME280;61705;46.228;24.812;2023-09-19T09:36:42;97543.09;;;19.85;65.44
51261;BME280;61705;46.228;24.812;2023-09-19T09:39:14;97553.50;;;19.99;67.59
51261;BME280;61705;46.228;24.812;2023-09-19T09:41:45;97552.97;;;20.05;66.24
51261;BME280;61705;46.228;24.812;2023-09-19T09:44:16;97562.19;;;20.12;66.08
51261;BME280;61705;46.228;24.812;2023-09-19T09:46:46;97558.50;;;20.13;63.31
51261;BME280;61705;46.228;24.812;2023-09-19T09:49:26;97567.47;;;20.24;64.00
51261;BME280;61705;46.228;24.812;2023-09-19T09:52:01;97565.03;;;20.11;62.69
51261;BME280;61705;46.228;24.812;2023-09-19T09:54:36;97574.63;;;20.34;64.09
51261;BME280;61705;46.228;24.812;2023-09-19T09:57:06;97577.03;;;20.58;64.12
51261;BME280;61705;46.228;24.812;2023-09-19T09:59:58;97582.44;;;20.47;63.95
51261;BME280;61705;46.228;24.812;2023-09-19T10:02:37;97588.06;;;20.44;64.02
51261;BME280;61705;46.228;24.812;2023-09-19T10:05:13;97583.63;;;20.33;63.47
51261;BME280;61705;46.228;24.812;2023-09-19T10:07:50;97582.78;;;20.54;63.31
51261;BME280;61705;46.228;24.812;2023-09-19T10:10:32;97580.94;;;20.54;62.12
51261;BME280;61705;46.228;24.812;2023-09-19T10:13:21;97584.41;;;20.66;61.73
51261;BME280;61705;46.228;24.812;2023-09-19T10:15:50;97588.34;;;20.62;61.92
51261;BME280;61705;46.228;24.812;2023-09-19T10:18:19;97598.78;;;20.55;62.32
51261;BME280;61705;46.228;24.812;2023-09-19T10:20:51;97593.16;;;20.47;62.52
51261;BME280;61705;46.228;24.812;2023-09-19T10:23:18;97601.88;;;20.61;62.72
51261;BME280;61705;46.228;24.812;2023-09-19T10:26:06;97588.34;;;20.41;62.96
51261;BME280;61705;46.228;24.812;2023-09-19T10:28:32;97594.16;;;20.46;63.37
51261;BME280;61705;46.228;24.812;2023-09-19T10:31:01;97596.41;;;20.41;63.73
51261;BME280;61705;46.228;24.812;2023-09-19T10:33:31;97593.44;;;20.44;63.78
51261;BME280;61705;46.228;24.812;2023-09-19T10:36:02;97599.56;;;20.25;63.93
51261;BME280;61705;46.228;24.812;2023-09-19T10:38:31;97594.66;;;20.09;64.45
51261;BME280;61705;46.228;24.812;2023-09-19T10:41:02;97600.81;;;20.00;65.04
51261;BME280;61705;46.228;24.812;2023-09-19T10:43:30;97607.22;;;19.88;65.49
51261;BME280;61705;46.228;24.812;2023-09-19T10:46:08;97606.75;;;19.83;65.80
51261;BME280;61705;46.228;24.812;2023-09-19T10:48:39;97604.25;;;19.70;66.46
51261;BME280;61705;46.228;24.812;2023-09-19T10:51:09;97611.13;;;19.63;66.93
51261;BME280;61705;46.228;24.812;2023-09-19T10:56:56;97615.66;;;19.40;67.87
51261;BME280;61705;46.228;24.812;2023-09-19T11:01:47;97616.13;;;19.02;70.24
51261;BME280;61705;46.228;24.812;2023-09-19T11:04:21;97614.66;;;18.98;70.72
51261;BME280;61705;46.228;24.812;2023-09-19T11:07:01;97617.69;;;18.93;71.46
51261;BME280;61705;46.228;24.812;2023-09-19T11:09:47;97620.59;;;18.90;72.80
51261;BME280;61705;46.228;24.812;2023-09-19T11:14:52;97628.38;;;18.59;78.18
51261;BME280;61705;46.228;24.812;2023-09-19T11:30:30;97634.94;;;17.73;91.58
51261;BME280;61705;46.228;24.812;2023-09-19T11:33:18;97616.06;;;17.64;90.88
51261;BME280;61705;46.228;24.812;2023-09-19T11:41:51;97615.00;;;17.42;95.21
51261;BME280;61705;46.228;24.812;2023-09-19T11:46:52;97603.75;;;17.50;96.65
51261;BME280;61705;46.228;24.812;2023-09-19T11:49:25;97599.16;;;17.52;94.00
51261;BME280;61705;46.228;24.812;2023-09-19T11:51:52;97597.47;;;17.51;93.76
51261;BME280;61705;46.228;24.812;2023-09-19T11:54:20;97599.38;;;17.49;94.00
51261;BME280;61705;46.228;24.812;2023-09-19T11:56:51;97595.88;;;17.48;94.09
51261;BME280;61705;46.228;24.812;2023-09-19T11:59:24;97602.91;;;17.49;94.47
51261;BME280;61705;46.228;24.812;2023-09-19T12:02:01;97601.66;;;17.42;95.00
51261;BME280;61705;46.228;24.812;2023-09-19T12:07:08;97587.00;;;17.24;98.23
51261;BME280;61705;46.228;24.812;2023-09-19T12:09:43;97585.34;;;17.34;97.25
51261;BME280;61705;46.228;24.812;2023-09-19T12:12:10;97586.97;;;17.37;97.58
51261;BME280;61705;46.228;24.812;2023-09-19T12:14:47;97583.19;;;17.39;96.02
51261;BME280;61705;46.228;24.812;2023-09-19T12:17:14;97584.19;;;17.49;96.58
51261;BME280;61705;46.228;24.812;2023-09-19T12:19:49;97589.34;;;17.64;97.29
51261;BME280;61705;46.228;24.812;2023-09-19T12:22:17;97586.97;;;17.72;95.77
51261;BME280;61705;46.228;24.812;2023-09-19T12:24:45;97593.63;;;17.66;95.33
51261;BME280;61705;46.228;24.812;2023-09-19T12:27:13;97585.66;;;17.77;95.43
51261;BME280;61705;46.228;24.812;2023-09-19T12:29:43;97577.25;;;17.71;95.92
51261;BME280;61705;46.228;24.812;2023-09-19T12:32:10;97585.97;;;17.62;97.53
51261;BME280;61705;46.228;24.812;2023-09-19T12:34:37;97585.22;;;17.60;98.26
51261;BME280;61705;46.228;24.812;2023-09-19T12:37:09;97593.22;;;17.60;99.48
51261;BME280;61705;46.228;24.812;2023-09-19T12:39:43;97585.75;;;17.41;98.98
51261;BME280;61705;46.228;24.812;2023-09-19T12:42:16;97576.75;;;17.42;98.99
51261;BME280;61705;46.228;24.812;2023-09-19T12:44:46;97570.56;;;17.41;100.00
51261;BME280;61705;46.228;24.812;2023-09-19T12:47:16;97579.25;;;17.32;99.55
51261;BME280;61705;46.228;24.812;2023-09-19T12:52:33;97559.06;;;17.52;100.00
51261;BME280;61705;46.228;24.812;2023-09-19T12:55:01;97560.06;;;17.51;100.00
51261;BME280;61705;46.228;24.812;2023-09-19T12:57:29;97544.75;;;17.53;99.97
51261;BME280;61705;46.228;24.812;2023-09-19T13:00:02;97542.97;;;17.65;100.00
51261;BME280;61705;46.228;24.812;2023-09-19T13:02:32;97543.69;;;17.67;100.00
51261;BME280;61705;46.228;24.812;2023-09-19T13:04:59;97533.63;;;17.70;98.33
51261;BME280;61705;46.228;24.812;2023-09-19T13:07:40;97540.00;;;17.81;98.17
51261;BME280;61705;46.228;24.812;2023-09-19T13:10:14;97544.50;;;17.80;nan
51261;BME280;61705;46.228;24.812;2023-09-19T13:12:43;97540.69;;;17.71;97.08
51261;BME280;61705;46.228;24.812;2023-09-19T13:15:14;97547.09;;;18.04;96.82
51261;BME280;61705;46.228;24.812;2023-09-19T13:17:44;97545.06;;;18.30;94.87
51261;BME280;61705;46.228;24.812;2023-09-19T13:20:24;97534.69;;;18.59;93.88
51261;BME280;61705;46.228;24.812;2023-09-19T13:22:54;97526.91;;;18.67;91.58
51261;BME280;61705;46.228;24.812;2023-09-19T13:25:37;97512.19;;;18.84;92.55
51261;BME280;61705;46.228;24.812;2023-09-19T13:28:06;97504.50;;;18.91;91.64
51261;BME280;61705;46.228;24.812;2023-09-19T13:30:42;97508.13;;;18.90;91.69
51261;BME280;61705;46.228;24.812;2023-09-19T13:33:13;97507.19;;;18.80;91.63
51261;BME280;61705;46.228;24.812;2023-09-19T13:35:47;97503.03;;;18.87;91.64
51261;BME280;61705;46.228;24.812;2023-09-19T13:38:14;97516.69;;;18.84;89.93
51261;BME280;61705;46.228;24.812;2023-09-19T13:40:41;97515.69;;;18.96;90.57
51261;BME280;61705;46.228;24.812;2023-09-19T13:43:11;97512.44;;;18.81;90.85
51261;BME280;61705;46.228;24.812;2023-09-19T13:45:41;97512.69;;;18.67;90.07
51261;BME280;61705;46.228;24.812;2023-09-19T13:48:10;97506.63;;;18.54;89.21
51261;BME280;61705;46.228;24.812;2023-09-19T13:50:38;97501.00;;;18.45;88.55
51261;BME280;61705;46.228;24.812;2023-09-19T13:53:09;97489.81;;;18.74;89.17